Reed Plt, Maine
Current Conditions -  °F | °C
As of 8:53 AM on Monday 22 Dec 2014 (Local Time) from KHUL Reporting Station
Overcast Overcast  
Wind Chill: 24°   Ceiling: 4100
Heat Index: 24°   Visibility: 10mi
Dew Point: 22°   Wind: 0mph
Humidity: 91%   Direction: NA
Pressure: 30.43"   Gusts: NA
Location:  45.7877°N, 68.0764°W
Report Text: KHUL 221353Z AUTO 00000KT 10SM SCT020 OVC041 M04/M06 A3043 RMK AO2 SLP312 T10441056
Loading
Personal Weather Stations






























Interactive Weather Map New forecast layout! Learn more

10-Day Weather Forecast

Advertisements
Track Severe Weather on mobile